Kapalua-West, HI

04:09 PM HST am 21. September 2014 (GMT -1000)
Lahaina | Change Station
CLOSE
Current Station
Flughafen
Location: Lahaina,
Höhe: 256 ft
Wetterstationen in der Umgebung

Höhe 256 ft 20.96 °N, 156.67 °W | Updated 24 minutes ago

Partly Cloudy
Teils Wolkig
90 °F
gefühlte 98 °F
N
10
Wind Wechselnd Wind aus Ost-Nordost

Heute
Max. -- | schwach -- °F
--% Regenrisiko
Gestern
Max. -- | schwach -- °F
Precip. -- inch
6:15 AM 6:23 PM
Letztes Viertel, 4% visible
Druck 29.91 inch
Sichtweite 15.0 Meilen
Wolken Few 2500 ft
Few 4500 ft
Hitzeindex 98 °F
Taupunkt 73 °F
Feuchtigkeit 59%
Regen 0.00 inch
Schneehöhe Nicht verfügbar..
UV 4 von 12
Pollen Nicht verfügbar..
Luftqualität Nicht verfügbar..
Flu Activity Nicht verfügbar..
METAR PHJH 220145Z 06009KT 15SM FEW025 FEW045 32/23 A2991

More Conditions Fewer Conditions

Druck 29.91 inch
Sichtweite 15.0 Meilen
Wolken Few 2500 ft
Few 4500 ft
Hitzeindex 98 °F
Taupunkt 73 °F
Feuchtigkeit 59%
Regen 0.00 inch
Schneehöhe Nicht verfügbar..
UV 4 von 12
Pollen Nicht verfügbar..
Luftqualität Nicht verfügbar..
Flu Activity Nicht verfügbar..
METAR PHJH 220145Z 06009KT 15SM FEW025 FEW045 32/23 A2991

More Conditions Fewer Conditions

10-Day Weather Forecast

Almanac

Astronomie

Sep. 21, 2014 Aufgang Untergang
Genaue Zeit 06:15 HST 18:23 HST
Bürgerliche Dämmerung 05:53 HST 18:45 HST
Nautische Dämmerung 05:27 HST 19:11 HST
Astronomische Dämmerung 05:01 HST 19:37 HST
Mond 04:12 HST (9/21) 16:55 HST (9/21)
Länge des sichtbaren Lichts 12h 52m
Tageslänge
12h 08m
Tomorrow will be 1m 12s shorter.
Letztes Viertel, 4% of the Moon is Illuminated
Heute
Letztes Viertel
Sept 24
Neu
Okt 1
Erstes Viertel
Okt 8
Vollmond
Okt 15
Letztes Viertel

Heutige Rekorde

State Highs State Lows

Community

WunderPhotos

Upload Photos

1,755,347 Fotos hochgeladen!

WunderBlogs® & News

Nearby

Schneehöhe

Station Depth Höhe
Kein Neuschnee gemeldet.

Erdbebenaktivität

Stadt Distance Mag. Time & Date
No recent earthquake activity has been reported nearby.
Minimum magnitude displayed is 2.5.

küstennahe Wassertemperaturen

Ort Temperatur
Kein Stationsbericht

Wetterstationen in der Umgebung